createdAt,value
2022-12-26T00:00:38.387Z,1.00
2022-12-26T00:03:05.753Z,1.00
2022-12-26T00:05:37.346Z,1.00
2022-12-26T00:08:05.183Z,1.00
2022-12-26T00:10:32.291Z,1.00
2022-12-26T00:13:39.123Z,1.00
2022-12-26T00:15:46.459Z,1.00
2022-12-26T00:18:13.523Z,1.00
2022-12-26T00:20:40.571Z,1.00
2022-12-26T00:23:08.416Z,1.00
2022-12-26T00:25:35.679Z,1.00
2022-12-26T00:28:02.775Z,1.00
2022-12-26T00:30:29.987Z,1.00
2022-12-26T00:32:57.005Z,1.00
2022-12-26T00:35:24.164Z,1.00
2022-12-26T00:37:51.251Z,1.00
2022-12-26T00:40:18.430Z,1.00
2022-12-26T00:42:45.504Z,1.00
2022-12-26T00:45:12.669Z,1.00
2022-12-26T00:47:39.748Z,1.00
2022-12-26T00:50:13.323Z,1.00
2022-12-26T00:52:43.268Z,1.00
2022-12-26T00:55:10.980Z,1.00
2022-12-26T00:57:38.019Z,1.00
2022-12-26T01:00:05.947Z,1.00
2022-12-26T01:02:39.362Z,1.00
2022-12-26T01:05:08.850Z,1.00
2022-12-26T01:08:22.945Z,1.00
2022-12-26T01:10:28.692Z,1.00
2022-12-26T01:12:55.967Z,1.00
2022-12-26T01:15:23.216Z,1.00
2022-12-26T01:17:50.346Z,1.00
2022-12-26T01:20:17.468Z,1.00
2022-12-26T01:22:44.596Z,1.00
2022-12-26T01:25:12.837Z,1.00
2022-12-26T01:27:40.042Z,1.00
2022-12-26T01:30:07.973Z,1.00
2022-12-26T01:32:35.193Z,1.00
2022-12-26T01:35:02.240Z,1.00
2022-12-26T01:37:31.184Z,1.00
2022-12-26T01:39:58.331Z,1.00
2022-12-26T01:42:26.890Z,1.00
2022-12-26T01:45:22.268Z,1.00
2022-12-26T01:48:33.566Z,1.00
2022-12-26T01:51:04.828Z,1.00
2022-12-26T01:53:38.574Z,1.00
2022-12-26T01:56:18.618Z,1.00
2022-12-26T01:58:54.859Z,1.00
2022-12-26T02:01:29.307Z,1.00
2022-12-26T02:04:14.908Z,1.00
2022-12-26T02:06:43.201Z,1.00
2022-12-26T02:09:10.853Z,1.00
2022-12-26T02:11:46.984Z,1.00
2022-12-26T02:14:14.421Z,1.00
2022-12-26T02:16:43.395Z,1.00
2022-12-26T02:19:37.894Z,1.00
2022-12-26T02:22:27.075Z,1.00
2022-12-26T02:25:32.018Z,1.00
2022-12-26T02:28:16.098Z,1.00
2022-12-26T02:31:23.083Z,1.00
2022-12-26T02:33:50.214Z,1.00
2022-12-26T02:36:29.495Z,1.00
2022-12-26T02:39:44.993Z,1.00
2022-12-26T02:42:13.947Z,1.00
2022-12-26T02:45:07.611Z,1.00
2022-12-26T02:47:54.836Z,1.00
2022-12-26T02:50:58.111Z,1.00
2022-12-26T02:53:58.927Z,1.00
2022-12-26T02:56:56.275Z,1.00
2022-12-26T02:59:59.550Z,1.00
2022-12-26T03:03:11.151Z,1.00
2022-12-26T03:06:12.910Z,1.00
2022-12-26T03:09:28.096Z,1.00
2022-12-26T03:12:20.122Z,1.00
2022-12-26T03:14:55.558Z,1.00
2022-12-26T03:17:38.368Z,1.00
2022-12-26T03:20:11.729Z,1.00
2022-12-26T03:22:50.866Z,1.00
2022-12-26T03:25:46.589Z,1.00
2022-12-26T03:28:14.089Z,1.00
2022-12-26T03:30:50.779Z,1.00
2022-12-26T03:33:56.907Z,1.00
2022-12-26T03:36:41.849Z,1.00
2022-12-26T03:39:46.588Z,1.00
2022-12-26T03:42:43.394Z,1.00
2022-12-26T03:45:44.591Z,1.00
2022-12-26T03:48:56.495Z,1.00
2022-12-26T03:51:52.253Z,1.00
2022-12-26T03:54:48.528Z,1.00
2022-12-26T03:57:40.292Z,1.00
2022-12-26T04:00:29.600Z,1.00
2022-12-26T04:03:21.946Z,1.00
2022-12-26T04:06:10.695Z,1.00
2022-12-26T04:09:08.149Z,1.00
2022-12-26T04:11:57.452Z,1.00
2022-12-26T04:14:48.766Z,1.00
2022-12-26T04:17:57.435Z,1.00
2022-12-26T04:20:30.467Z,1.00
2022-12-26T04:23:59.527Z,1.00
2022-12-26T04:27:02.197Z,1.00
2022-12-26T04:29:48.892Z,1.00
2022-12-26T04:32:46.348Z,1.00
2022-12-26T04:35:38.543Z,1.00
2022-12-26T04:38:25.220Z,1.00
2022-12-26T04:41:16.927Z,1.00
2022-12-26T04:44:05.942Z,1.00
2022-12-26T04:46:35.193Z,1.00
2022-12-26T04:49:24.533Z,1.00
2022-12-26T04:51:52.044Z,1.00
2022-12-26T04:54:19.271Z,1.00
2022-12-26T04:56:46.659Z,1.00
2022-12-26T04:59:14.596Z,1.00
2022-12-26T05:02:01.240Z,1.00
2022-12-26T05:04:47.060Z,1.00
2022-12-26T05:07:54.480Z,1.00
2022-12-26T05:10:27.371Z,1.00
2022-12-26T05:12:54.885Z,1.00
2022-12-26T05:15:22.758Z,1.00
2022-12-26T05:18:08.249Z,1.00
2022-12-26T05:20:50.769Z,1.00
2022-12-26T05:23:46.148Z,1.00
2022-12-26T05:26:38.982Z,1.00
2022-12-26T05:29:06.195Z,1.00
2022-12-26T05:31:36.391Z,1.00
2022-12-26T05:34:08.344Z,1.00
2022-12-26T05:36:39.510Z,1.00
2022-12-26T05:39:08.123Z,1.00
2022-12-26T05:41:36.065Z,1.00
2022-12-26T05:44:03.303Z,1.00
2022-12-26T05:46:30.456Z,1.00
2022-12-26T05:48:57.741Z,1.00
2022-12-26T05:51:25.270Z,1.00
2022-12-26T05:53:52.603Z,1.00
2022-12-26T05:56:21.016Z,1.00
2022-12-26T05:58:53.647Z,1.00
2022-12-26T06:01:21.461Z,1.00
2022-12-26T06:03:54.117Z,1.00
2022-12-26T06:06:22.182Z,1.00
2022-12-26T06:08:50.814Z,1.00
2022-12-26T06:11:18.929Z,1.00
2022-12-26T06:13:46.056Z,1.00
2022-12-26T06:16:18.359Z,1.00
2022-12-26T06:18:46.048Z,1.00
2022-12-26T06:21:17.381Z,1.00
2022-12-26T06:23:44.656Z,1.00
2022-12-26T06:26:12.951Z,1.00
2022-12-26T06:28:42.181Z,1.00
2022-12-26T06:31:14.720Z,1.00
2022-12-26T06:33:42.470Z,1.00
2022-12-26T06:36:15.586Z,1.00
2022-12-26T06:38:42.825Z,1.00
2022-12-26T06:41:12.830Z,1.00
2022-12-26T06:43:40.340Z,1.00
2022-12-26T06:46:10.249Z,1.00
2022-12-26T06:48:39.803Z,1.00
2022-12-26T06:51:11.049Z,1.00
2022-12-26T06:53:38.763Z,1.00
2022-12-26T06:56:16.268Z,1.00
2022-12-26T06:58:44.443Z,1.00
2022-12-26T07:01:14.603Z,1.00
2022-12-26T07:03:50.374Z,1.00
2022-12-26T07:06:36.451Z,1.00
2022-12-26T07:09:07.756Z,1.00
2022-12-26T07:11:37.473Z,1.00
2022-12-26T07:14:04.946Z,1.00
2022-12-26T07:16:34.421Z,1.00
2022-12-26T07:19:01.846Z,1.00
2022-12-26T07:21:30.489Z,1.00
2022-12-26T07:24:00.663Z,1.00
2022-12-26T07:26:28.016Z,1.00
2022-12-26T07:28:59.188Z,1.00
2022-12-26T07:31:28.428Z,1.00
2022-12-26T07:33:56.520Z,1.00
2022-12-26T07:36:25.375Z,1.00
2022-12-26T07:38:52.698Z,1.00
2022-12-26T07:41:38.657Z,1.00
2022-12-26T07:44:06.343Z,1.00
2022-12-26T07:46:34.048Z,1.00
2022-12-26T07:49:01.588Z,1.00
2022-12-26T07:51:28.971Z,1.00
2022-12-26T07:53:56.098Z,1.00
2022-12-26T07:56:23.435Z,1.00
2022-12-26T07:58:51.673Z,1.00
2022-12-26T08:01:19.635Z,1.00
2022-12-26T08:03:49.560Z,1.00
2022-12-26T08:06:20.446Z,1.20
2022-12-26T08:08:51.059Z,2.70
2022-12-26T08:11:22.462Z,3.80
2022-12-26T08:13:50.036Z,4.90
2022-12-26T08:16:17.534Z,4.70
2022-12-26T08:18:44.916Z,4.20
2022-12-26T08:21:13.388Z,2.20
2022-12-26T08:23:40.779Z,3.20
2022-12-26T08:26:09.756Z,4.20
2022-12-26T08:28:37.256Z,4.70
2022-12-26T08:31:09.043Z,7.20
2022-12-26T08:33:36.539Z,7.60
2022-12-26T08:36:06.080Z,8.20
2022-12-26T08:38:34.044Z,9.80
2022-12-26T08:41:04.874Z,8.70
2022-12-26T08:44:03.110Z,8.10
2022-12-26T08:46:21.685Z,8.30
2022-12-26T08:48:49.684Z,11.60
2022-12-26T08:51:22.629Z,13.10
2022-12-26T08:53:50.874Z,12.90
2022-12-26T08:56:21.434Z,10.10
2022-12-26T08:58:49.307Z,11.60
2022-12-26T09:01:19.316Z,11.60
2022-12-26T09:03:48.395Z,12.10
2022-12-26T09:06:16.043Z,14.50
2022-12-26T09:08:43.445Z,13.80
2022-12-26T09:11:20.928Z,15.90
2022-12-26T09:13:48.492Z,16.80
2022-12-26T09:16:21.315Z,18.60
2022-12-26T09:18:48.981Z,19.00
2022-12-26T09:21:16.774Z,20.20
2022-12-26T09:23:44.293Z,20.50
2022-12-26T09:26:20.263Z,21.20
2022-12-26T09:28:47.872Z,21.90
2022-12-26T09:31:19.206Z,23.50
2022-12-26T09:33:47.635Z,23.50
2022-12-26T09:36:20.771Z,24.50
2022-12-26T09:38:49.060Z,24.20
2022-12-26T09:41:31.180Z,25.90
2022-12-26T09:44:39.683Z,26.30
2022-12-26T09:47:31.326Z,28.80
2022-12-26T09:50:03.225Z,28.20
2022-12-26T09:52:56.031Z,27.80
2022-12-26T09:55:48.553Z,28.70
2022-12-26T09:58:30.801Z,29.30
2022-12-26T10:01:10.206Z,28.20
2022-12-26T10:03:46.424Z,30.80
2022-12-26T10:06:24.881Z,28.80
2022-12-26T10:09:27.971Z,28.10
2022-12-26T10:12:05.159Z,29.30
2022-12-26T10:14:44.216Z,28.00
2022-12-26T10:17:38.954Z,27.00
2022-12-26T10:20:27.638Z,24.90
2022-12-26T10:23:28.550Z,24.80
2022-12-26T10:26:04.592Z,23.20
2022-12-26T10:28:51.834Z,21.40
2022-12-26T10:31:41.621Z,19.90
2022-12-26T10:34:08.843Z,17.50
2022-12-26T10:36:49.513Z,18.00
2022-12-26T10:39:26.970Z,16.80
2022-12-26T10:41:59.242Z,16.40
2022-12-26T10:44:28.042Z,16.50
2022-12-26T10:47:00.796Z,19.00
2022-12-26T10:49:28.755Z,15.40
2022-12-26T10:51:59.347Z,15.00
2022-12-26T10:54:29.449Z,17.40
2022-12-26T10:56:59.036Z,16.30
2022-12-26T10:59:49.453Z,15.90
2022-12-26T11:02:32.664Z,18.10
2022-12-26T11:05:56.961Z,18.90
2022-12-26T11:07:55.997Z,10.60
2022-12-26T11:10:25.135Z,9.10
2022-12-26T11:12:55.181Z,8.80
2022-12-26T11:15:48.212Z,10.40
2022-12-26T11:18:17.870Z,11.10
2022-12-26T11:20:47.047Z,11.30
2022-12-26T11:23:25.873Z,12.20
2022-12-26T11:25:55.970Z,13.30
2022-12-26T11:28:30.837Z,12.20
2022-12-26T11:30:59.450Z,11.70
2022-12-26T11:33:37.012Z,12.60
2022-12-26T11:36:10.110Z,14.20
2022-12-26T11:38:48.759Z,13.10
2022-12-26T11:41:33.803Z,12.00
2022-12-26T11:44:21.399Z,13.40
2022-12-26T11:47:00.446Z,15.80
2022-12-26T11:49:56.132Z,15.30
2022-12-26T11:52:55.165Z,14.40
2022-12-26T11:55:35.025Z,16.10
2022-12-26T11:58:13.938Z,16.10
2022-12-26T12:00:51.011Z,18.40
2022-12-26T12:03:24.654Z,18.50
2022-12-26T12:06:09.393Z,19.80
2022-12-26T12:08:36.478Z,18.60
2022-12-26T12:11:11.230Z,19.50
2022-12-26T12:13:52.832Z,20.90
2022-12-26T12:16:38.220Z,22.80
2022-12-26T12:19:38.064Z,22.50
2022-12-26T12:22:25.596Z,26.10
2022-12-26T12:25:03.980Z,28.60
2022-12-26T12:27:41.248Z,29.10
2022-12-26T12:30:19.384Z,29.50
2022-12-26T12:32:55.149Z,32.30
2022-12-26T12:35:47.037Z,33.70
2022-12-26T12:38:50.257Z,32.90
2022-12-26T12:41:51.194Z,35.50
2022-12-26T12:44:38.984Z,38.30
2022-12-26T12:47:14.985Z,37.70
2022-12-26T12:50:13.805Z,36.60
2022-12-26T12:52:55.954Z,40.90
2022-12-26T12:55:53.906Z,41.40
2022-12-26T12:58:47.266Z,45.70
2022-12-26T13:01:19.440Z,49.70
2022-12-26T13:04:09.042Z,51.50
2022-12-26T13:06:43.836Z,52.80
2022-12-26T13:09:30.810Z,50.00
2022-12-26T13:12:12.445Z,51.50
2022-12-26T13:14:59.787Z,53.10
2022-12-26T13:17:33.166Z,53.40
2022-12-26T13:20:03.322Z,51.50
2022-12-26T13:22:59.327Z,49.70
2022-12-26T13:25:31.405Z,46.50
2022-12-26T13:28:09.899Z,48.60
2022-12-26T13:30:38.156Z,45.30
2022-12-26T13:33:06.151Z,43.10
2022-12-26T13:35:54.806Z,43.80
2022-12-26T13:38:24.354Z,45.40
2022-12-26T13:41:36.004Z,43.60
2022-12-26T13:44:23.501Z,45.20
2022-12-26T13:46:50.723Z,43.60
2022-12-26T13:49:37.200Z,49.20
2022-12-26T13:52:19.406Z,50.10
2022-12-26T13:54:50.511Z,50.80
2022-12-26T13:57:36.406Z,50.40
2022-12-26T14:00:12.701Z,54.70
2022-12-26T14:05:47.765Z,60.00
2022-12-26T14:08:54.747Z,65.20
2022-12-26T14:11:55.762Z,68.10
2022-12-26T14:14:59.240Z,70.00
2022-12-26T14:17:35.274Z,70.00
2022-12-26T14:20:11.429Z,71.50
2022-12-26T14:22:50.178Z,76.00
2022-12-26T14:25:38.805Z,80.80
2022-12-26T14:28:42.625Z,91.30
2022-12-26T14:31:23.523Z,94.10
2022-12-26T14:34:06.934Z,99.50
2022-12-26T14:36:57.578Z,99.90
2022-12-26T14:39:39.409Z,99.90
2022-12-26T14:42:25.083Z,99.90
2022-12-26T14:44:57.421Z,99.90
2022-12-26T14:47:47.550Z,99.90
2022-12-26T14:50:32.734Z,99.90
2022-12-26T14:53:21.789Z,99.90
2022-12-26T14:55:49.312Z,99.90
2022-12-26T14:58:31.621Z,99.90
2022-12-26T15:01:24.881Z,99.90
2022-12-26T15:04:07.449Z,99.90
2022-12-26T15:07:05.054Z,99.90
2022-12-26T15:09:44.175Z,99.90
2022-12-26T15:12:51.335Z,99.90
2022-12-26T15:15:50.889Z,99.90
2022-12-26T15:18:21.235Z,99.90
2022-12-26T15:20:57.583Z,99.90
2022-12-26T15:23:50.402Z,99.90
2022-12-26T15:26:36.561Z,99.90
2022-12-26T15:29:31.600Z,99.90
2022-12-26T15:32:10.089Z,99.90
2022-12-26T15:34:40.115Z,99.90
2022-12-26T15:37:19.889Z,99.90
2022-12-26T15:40:05.386Z,99.90
2022-12-26T15:42:43.832Z,99.90
2022-12-26T15:45:48.177Z,99.90
2022-12-26T15:48:36.993Z,99.90
2022-12-26T15:51:30.515Z,99.90
2022-12-26T15:54:22.437Z,99.90
2022-12-26T15:56:58.697Z,99.90
2022-12-26T15:59:41.574Z,99.90
2022-12-26T16:02:28.994Z,99.90
2022-12-26T16:05:21.439Z,99.90
2022-12-26T16:07:52.626Z,99.90
2022-12-26T16:10:25.680Z,99.90
2022-12-26T16:13:23.089Z,99.90
2022-12-26T16:15:58.174Z,99.90
2022-12-26T16:18:33.531Z,99.90
2022-12-26T16:21:25.520Z,99.90
2022-12-26T16:23:54.612Z,99.90
2022-12-26T16:26:29.275Z,99.90
2022-12-26T16:28:59.455Z,99.90
2022-12-26T16:31:31.271Z,99.90
2022-12-26T16:33:59.969Z,99.90
2022-12-26T16:36:29.959Z,99.90
2022-12-26T16:38:57.406Z,99.90
2022-12-26T16:41:27.520Z,99.90
2022-12-26T16:43:56.696Z,99.90
2022-12-26T16:46:27.172Z,99.90
2022-12-26T16:49:00.396Z,99.90
2022-12-26T16:51:32.483Z,99.90
2022-12-26T16:54:15.392Z,99.90
2022-12-26T16:56:42.880Z,99.90
2022-12-26T16:59:19.758Z,99.90
2022-12-26T17:02:00.850Z,99.90
2022-12-26T17:04:30.319Z,99.90
2022-12-26T17:07:08.406Z,99.90
2022-12-26T17:09:44.964Z,99.90
2022-12-26T17:12:33.871Z,99.90
2022-12-26T17:15:02.356Z,99.90
2022-12-26T17:17:35.598Z,99.90
2022-12-26T17:20:29.471Z,99.90
2022-12-26T17:22:57.701Z,99.90
2022-12-26T17:25:30.612Z,99.90
2022-12-26T17:28:12.624Z,99.90
2022-12-26T17:30:43.459Z,99.90
2022-12-26T17:33:17.873Z,99.90
2022-12-26T17:36:44.783Z,99.90
2022-12-26T17:38:37.802Z,99.90
2022-12-26T17:41:06.915Z,99.90
2022-12-26T17:43:36.934Z,99.90
2022-12-26T17:46:06.381Z,99.90
2022-12-26T17:48:34.223Z,99.90
2022-12-26T17:51:04.793Z,99.90
2022-12-26T17:53:43.764Z,99.90
2022-12-26T17:56:24.386Z,99.90
2022-12-26T17:58:51.660Z,99.90
2022-12-26T18:01:21.747Z,99.90
2022-12-26T18:03:52.151Z,99.90
2022-12-26T18:06:20.092Z,99.90
2022-12-26T18:08:47.377Z,99.90
2022-12-26T18:11:15.210Z,99.90
2022-12-26T18:13:43.135Z,99.90
2022-12-26T18:16:19.989Z,99.90
2022-12-26T18:18:48.449Z,99.90
2022-12-26T18:21:16.382Z,99.90
2022-12-26T18:23:43.694Z,99.90
2022-12-26T18:26:25.155Z,99.90
2022-12-26T18:28:52.596Z,99.90
2022-12-26T18:31:20.397Z,99.90
2022-12-26T18:33:47.690Z,99.90
2022-12-26T18:36:16.190Z,99.90
2022-12-26T18:38:43.882Z,99.90
2022-12-26T18:41:16.042Z,99.90
2022-12-26T18:43:43.206Z,99.90
2022-12-26T18:46:24.887Z,99.90
2022-12-26T18:48:56.840Z,99.90
2022-12-26T18:51:25.322Z,99.90
2022-12-26T18:53:52.710Z,99.90
2022-12-26T18:56:22.090Z,99.90
2022-12-26T18:58:57.218Z,99.90
2022-12-26T19:01:26.359Z,99.90
2022-12-26T19:03:54.222Z,99.90
2022-12-26T19:06:27.177Z,99.90
2022-12-26T19:08:54.785Z,99.90
2022-12-26T19:11:22.223Z,99.90
2022-12-26T19:13:49.393Z,99.90
2022-12-26T19:16:16.899Z,99.90
2022-12-26T19:18:44.011Z,99.90
2022-12-26T19:21:36.370Z,99.90
2022-12-26T19:24:03.597Z,99.90
2022-12-26T19:26:30.658Z,99.90
2022-12-26T19:28:57.950Z,99.90
2022-12-26T19:31:25.301Z,99.90
2022-12-26T19:33:52.429Z,99.90
2022-12-26T19:36:19.540Z,99.90
2022-12-26T19:38:46.656Z,99.90
2022-12-26T19:41:15.118Z,99.90
2022-12-26T19:43:42.306Z,99.90
2022-12-26T19:46:12.322Z,99.90
2022-12-26T19:48:41.085Z,99.90
2022-12-26T19:51:10.790Z,99.90
2022-12-26T19:53:38.562Z,99.90
2022-12-26T19:56:12.858Z,99.90
2022-12-26T19:58:40.184Z,99.90
2022-12-26T20:01:07.370Z,99.90
2022-12-26T20:03:35.126Z,99.90
2022-12-26T20:06:16.567Z,99.90
2022-12-26T20:08:45.358Z,99.90
2022-12-26T20:11:16.099Z,99.90
2022-12-26T20:13:44.885Z,99.90
2022-12-26T20:16:54.613Z,99.90
2022-12-26T20:19:08.160Z,99.90
2022-12-26T20:21:36.145Z,99.90
2022-12-26T20:24:03.593Z,99.90
2022-12-26T20:26:30.809Z,99.90
2022-12-26T20:29:03.614Z,99.90
2022-12-26T20:31:33.061Z,99.90
2022-12-26T20:34:01.149Z,99.90
2022-12-26T20:36:34.220Z,99.90
2022-12-26T20:39:04.874Z,99.90
2022-12-26T20:41:32.319Z,99.90
2022-12-26T20:43:59.728Z,99.90
2022-12-26T20:46:32.145Z,99.90
2022-12-26T20:49:01.357Z,99.90
2022-12-26T20:51:36.917Z,99.90
2022-12-26T20:54:06.597Z,99.90
2022-12-26T20:56:37.742Z,99.90
2022-12-26T20:59:08.675Z,99.90
2022-12-26T21:01:37.681Z,99.90
2022-12-26T21:04:05.243Z,99.90
2022-12-26T21:06:35.879Z,99.90
2022-12-26T21:09:04.525Z,99.90
2022-12-26T21:11:35.224Z,99.90
2022-12-26T21:14:05.863Z,99.90
2022-12-26T21:16:39.355Z,99.90
2022-12-26T21:19:12.562Z,99.90
2022-12-26T21:21:44.466Z,99.90
2022-12-26T21:24:21.036Z,99.90
2022-12-26T21:26:48.864Z,99.90
2022-12-26T21:29:23.432Z,99.90
2022-12-26T21:31:51.430Z,99.90
2022-12-26T21:34:21.151Z,99.90
2022-12-26T21:37:07.176Z,99.90
2022-12-26T21:39:36.265Z,99.90
2022-12-26T21:42:04.232Z,99.90
2022-12-26T21:44:31.358Z,99.90
2022-12-26T21:46:58.423Z,99.90
2022-12-26T21:49:25.665Z,99.90
2022-12-26T21:51:52.844Z,99.90
2022-12-26T21:54:43.431Z,94.70
2022-12-26T21:57:16.520Z,88.50
2022-12-26T21:59:59.652Z,81.20
2022-12-26T22:02:50.340Z,75.30
2022-12-26T22:05:20.363Z,72.20
2022-12-26T22:07:48.366Z,71.20
2022-12-26T22:10:34.091Z,69.70
2022-12-26T22:13:02.480Z,68.10
2022-12-26T22:15:48.281Z,65.40
2022-12-26T22:18:15.405Z,64.20
2022-12-26T22:20:44.814Z,66.40
2022-12-26T22:23:13.489Z,67.20
2022-12-26T22:25:40.711Z,65.40
2022-12-26T22:28:08.022Z,69.80
2022-12-26T22:30:35.104Z,68.80
2022-12-26T22:33:02.177Z,73.40
2022-12-26T22:35:29.285Z,68.80
2022-12-26T22:37:56.417Z,71.00
2022-12-26T22:40:23.565Z,68.70
2022-12-26T22:42:50.623Z,71.00
2022-12-26T22:45:17.986Z,71.70
2022-12-26T22:47:45.311Z,74.80
2022-12-26T22:50:16.387Z,75.90
2022-12-26T22:52:43.920Z,78.60
2022-12-26T22:55:11.511Z,78.40
2022-12-26T22:57:39.884Z,81.30
2022-12-26T23:00:11.205Z,81.00
2022-12-26T23:02:38.786Z,79.90
2022-12-26T23:05:06.585Z,82.80
2022-12-26T23:07:34.012Z,83.90
2022-12-26T23:10:01.618Z,83.70
2022-12-26T23:12:46.336Z,86.20
2022-12-26T23:15:19.335Z,86.70
2022-12-26T23:18:21.673Z,84.30
2022-12-26T23:21:07.976Z,83.40
2022-12-26T23:23:35.267Z,84.40
2022-12-26T23:26:02.374Z,87.40
2022-12-26T23:28:48.131Z,88.90
2022-12-26T23:31:15.799Z,91.90
2022-12-26T23:33:43.068Z,92.00
2022-12-26T23:36:10.431Z,93.80
2022-12-26T23:38:37.658Z,95.70
2022-12-26T23:41:04.915Z,96.40
2022-12-26T23:43:33.694Z,99.40
2022-12-26T23:46:01.255Z,99.90
2022-12-26T23:48:28.480Z,99.90
2022-12-26T23:51:06.383Z,99.90
2022-12-26T23:53:34.109Z,99.90
2022-12-26T23:56:01.405Z,99.90
2022-12-26T23:58:29.139Z,99.90
